Time;durP1;ratioP1;P1;durP2;ratioP2;P2;SDS_P1;SDS_P2;PMS_P1;PMS_P2;Temp;Humidity;BMP_temperature;BMP_pressure;BME280_temperature;BME280_humidity;BME280_pressure;Samples;Min_cycle;Max_cycle;Signal;HPM_P1;HPM_P2
2023/02/04 07:02:22;;;;;;;;;17.67;14.67;;;;;;;;6394956;22;45268;-69
2023/02/04 07:04:48;;;;;;;;;13.33;12.00;;;;;;;;6402527;22;45204;-69
2023/02/04 07:07:13;;;;;;;;;17.00;14.67;;;;;;;;6403315;22;45820;-69
2023/02/04 07:09:39;;;;;;;;;14.33;14.00;;;;;;;;6402863;22;45275;-69
2023/02/04 07:12:04;;;;;;;;;16.00;12.67;;;;;;;;6403071;22;45189;-69
2023/02/04 07:14:29;;;;;;;;;15.00;13.00;;;;;;;;6405096;22;45294;-70
2023/02/04 07:16:57;;;;;;;;;17.00;15.33;;;;;;;;6402846;22;46168;-69
2023/02/04 07:19:22;;;;;;;;;18.33;14.67;;;;;;;;6404610;22;45166;-70
2023/02/04 07:21:47;;;;;;;;;20.00;16.00;;;;;;;;6404506;22;45225;-69
2023/02/04 07:24:12;;;;;;;;;16.33;13.33;;;;;;;;6404690;22;45219;-70
2023/02/04 07:26:38;;;;;;;;;20.00;15.33;;;;;;;;6404598;22;46164;-69
2023/02/04 07:29:03;;;;;;;;;17.00;14.00;;;;;;;;6404190;22;45418;-70
2023/02/04 07:31:28;;;;;;;;;19.33;14.67;;;;;;;;6404189;22;45136;-70
2023/02/04 07:33:53;;;;;;;;;14.67;14.67;;;;;;;;6404826;22;45177;-70
2023/02/04 07:36:18;;;;;;;;;22.67;17.00;;;;;;;;6403420;22;46022;-67
2023/02/04 07:38:43;;;;;;;;;23.67;17.00;;;;;;;;6404150;22;45202;-70
2023/02/04 07:41:09;;;;;;;;;23.33;20.00;;;;;;;;6405302;22;45711;-66
2023/02/04 07:43:34;;;;;;;;;22.00;12.00;;;;;;;;6404843;22;45346;-67
2023/02/04 07:45:59;;;;;;;;;14.33;13.67;;;;;;;;6404552;22;45186;-66
2023/02/04 07:48:24;;;;;;;;;19.33;18.33;;;;;;;;6404060;22;45190;-67
2023/02/04 07:50:49;;;;;;;;;19.00;19.00;;;;;;;;6403244;22;45425;-67
2023/02/04 07:53:15;;;;;;;;;20.67;15.33;;;;;;;;6401329;22;45445;-68
2023/02/04 07:55:41;;;;;;;;;18.33;14.67;;;;;;;;6403525;22;45631;-66
2023/02/04 07:58:06;;;;;;;;;18.00;17.33;;;;;;;;6403626;22;45501;-66
2023/02/04 08:00:31;;;;;;;;;21.00;20.00;;;;;;;;6402608;22;45295;-66
2023/02/04 08:02:56;;;;;;;;;22.67;19.33;;;;;;;;6403478;22;45283;-66
2023/02/04 08:05:21;;;;;;;;;24.67;18.33;;;;;;;;6403668;22;45486;-67
2023/02/04 08:07:47;;;;;;;;;17.67;17.67;;;;;;;;6401696;22;45398;-66
2023/02/04 08:10:12;;;;;;;;;22.33;18.00;;;;;;;;6403118;22;45418;-66
2023/02/04 08:12:37;;;;;;;;;19.67;16.67;;;;;;;;6374289;22;45282;-66
2023/02/04 08:15:03;;;;;;;;;19.33;16.00;;;;;;;;6402278;22;45253;-67
2023/02/04 08:17:28;;;;;;;;;15.33;14.33;;;;;;;;6402030;22;45283;-67
2023/02/04 08:19:53;;;;;;;;;22.33;17.67;;;;;;;;6404303;22;45241;-67
2023/02/04 08:22:19;;;;;;;;;21.67;19.33;;;;;;;;6374941;22;45382;-68
2023/02/04 08:24:44;;;;;;;;;21.00;21.00;;;;;;;;6401822;22;45793;-73
2023/02/04 08:27:10;;;;;;;;;22.00;16.33;;;;;;;;6372311;22;45561;-69
2023/02/04 08:29:35;;;;;;;;;19.00;17.33;;;;;;;;6402978;22;45730;-66
2023/02/04 08:32:00;;;;;;;;;17.33;15.67;;;;;;;;6402456;22;45656;-65
2023/02/04 08:34:25;;;;;;;;;19.00;17.00;;;;;;;;6403338;22;46183;-67
2023/02/04 08:36:51;;;;;;;;;17.67;16.00;;;;;;;;6404150;22;45235;-65
2023/02/04 08:39:16;;;;;;;;;15.00;15.00;;;;;;;;6404227;22;45529;-66
2023/02/04 08:41:41;;;;;;;;;16.33;15.33;;;;;;;;6403092;22;45375;-66
2023/02/04 08:44:06;;;;;;;;;20.00;16.33;;;;;;;;6404893;22;45122;-66
2023/02/04 08:46:31;;;;;;;;;19.00;17.33;;;;;;;;6404574;22;45216;-65
2023/02/04 08:48:57;;;;;;;;;20.33;16.33;;;;;;;;6404413;22;45443;-66
2023/02/04 08:51:22;;;;;;;;;18.33;15.67;;;;;;;;6404292;22;45211;-66
2023/02/04 08:53:47;;;;;;;;;21.67;16.33;;;;;;;;6404655;22;45296;-66
2023/02/04 08:56:16;;;;;;;;;18.33;18.00;;;;;;;;6404641;22;45252;-66
2023/02/04 08:58:42;;;;;;;;;25.33;18.00;;;;;;;;6404075;22;45296;-65
2023/02/04 09:01:10;;;;;;;;;15.00;14.00;;;;;;;;6403429;22;45270;-65
2023/02/04 09:03:35;;;;;;;;;18.67;16.67;;;;;;;;6404164;22;45994;-66
2023/02/04 09:06:00;;;;;;;;;14.00;14.00;;;;;;;;6402778;22;45268;-66
2023/02/04 09:08:25;;;;;;;;;16.67;15.33;;;;;;;;6404860;22;45242;-65
2023/02/04 09:10:50;;;;;;;;;10.33;8.67;;;;;;;;6404389;22;45245;-66
2023/02/04 09:13:16;;;;;;;;;15.67;13.33;;;;;;;;6404759;22;45377;-65
2023/02/04 09:15:41;;;;;;;;;13.67;13.00;;;;;;;;6403995;22;45204;-66
2023/02/04 09:18:15;;;;;;;;;14.00;14.00;;;;;;;;6404032;22;45201;-66
2023/02/04 09:20:41;;;;;;;;;19.00;15.00;;;;;;;;6403698;22;45328;-66
2023/02/04 09:23:10;;;;;;;;;12.33;12.33;;;;;;;;6404045;22;46178;-66
2023/02/04 09:25:36;;;;;;;;;13.00;11.67;;;;;;;;6403676;22;45551;-66
2023/02/04 09:28:01;;;;;;;;;12.00;12.00;;;;;;;;6403907;22;45337;-66
2023/02/04 09:30:26;;;;;;;;;9.67;9.67;;;;;;;;6404423;22;45306;-66
2023/02/04 09:32:51;;;;;;;;;13.00;11.67;;;;;;;;6403548;22;46115;-66
2023/02/04 09:35:16;;;;;;;;;12.00;11.67;;;;;;;;6403999;22;45212;-66
2023/02/04 09:37:42;;;;;;;;;12.67;12.67;;;;;;;;6403990;22;45249;-67
2023/02/04 09:40:09;;;;;;;;;13.67;12.00;;;;;;;;6402521;22;45583;-66
2023/02/04 09:42:34;;;;;;;;;14.33;14.33;;;;;;;;6403799;22;46040;-66
2023/02/04 09:45:01;;;;;;;;;13.00;12.00;;;;;;;;6403486;22;45333;-66
2023/02/04 09:47:27;;;;;;;;;13.00;11.33;;;;;;;;6403136;22;45319;-66
2023/02/04 09:49:52;;;;;;;;;13.00;12.00;;;;;;;;6403870;22;45088;-65
2023/02/04 09:52:18;;;;;;;;;12.67;12.33;;;;;;;;6404138;22;46101;-65
2023/02/04 09:54:44;;;;;;;;;13.00;9.67;;;;;;;;6403478;22;45180;-65
2023/02/04 09:57:17;;;;;;;;;12.00;12.00;;;;;;;;6402812;22;45080;-66
2023/02/04 09:59:43;;;;;;;;;17.33;14.67;;;;;;;;6374525;22;45282;-65
2023/02/04 10:02:19;;;;;;;;;12.67;12.67;;;;;;;;6403431;22;45237;-65
2023/02/04 10:04:44;;;;;;;;;7.00;6.33;;;;;;;;6403913;22;45161;-66
2023/02/04 10:07:11;;;;;;;;;12.33;11.67;;;;;;;;6403507;22;45535;-65
2023/02/04 10:09:37;;;;;;;;;11.33;10.67;;;;;;;;6404483;22;45428;-65
2023/02/04 10:12:02;;;;;;;;;12.67;11.67;;;;;;;;6402395;22;46071;-65
2023/02/04 10:14:28;;;;;;;;;12.67;11.33;;;;;;;;6401424;22;45248;-66
2023/02/04 10:16:54;;;;;;;;;13.67;13.67;;;;;;;;6403530;22;45255;-66
2023/02/04 10:19:20;;;;;;;;;17.00;12.67;;;;;;;;6403967;22;45316;-67
2023/02/04 10:21:46;;;;;;;;;17.00;14.33;;;;;;;;6402650;22;46330;-67
2023/02/04 10:24:16;;;;;;;;;14.33;12.00;;;;;;;;6404076;22;45414;-66
2023/02/04 10:26:41;;;;;;;;;12.33;12.33;;;;;;;;6401740;22;45335;-65
2023/02/04 10:29:11;;;;;;;;;14.00;13.33;;;;;;;;6402331;22;45209;-65
2023/02/04 10:31:37;;;;;;;;;21.00;17.33;;;;;;;;6401452;22;45212;-64
2023/02/04 10:34:09;;;;;;;;;14.00;14.00;;;;;;;;6402952;22;45243;-65
2023/02/04 10:36:34;;;;;;;;;16.33;14.00;;;;;;;;6403301;22;45254;-64
2023/02/04 10:39:04;;;;;;;;;14.67;13.33;;;;;;;;6373807;22;45434;-64
2023/02/04 10:41:29;;;;;;;;;17.67;13.33;;;;;;;;6403198;22;46028;-65
2023/02/04 10:44:02;;;;;;;;;22.00;19.00;;;;;;;;6402790;22;45310;-65
2023/02/04 10:46:28;;;;;;;;;19.33;17.67;;;;;;;;6372355;22;45434;-65
2023/02/04 10:48:53;;;;;;;;;19.00;16.00;;;;;;;;6402545;22;45300;-66
2023/02/04 10:51:19;;;;;;;;;13.00;13.00;;;;;;;;6403274;22;46107;-64
2023/02/04 10:56:28;;;;;;;;;17.67;17.67;;;;;;;;6402690;22;45374;-65
2023/02/04 10:58:53;;;;;;;;;22.67;19.00;;;;;;;;6401812;22;45195;-64
2023/02/04 11:01:18;;;;;;;;;16.00;13.33;;;;;;;;6400914;22;45388;-66
2023/02/04 11:03:43;;;;;;;;;20.67;17.33;;;;;;;;6401161;22;45247;-66
2023/02/04 11:06:22;;;;;;;;;19.67;18.00;;;;;;;;6402210;22;45236;-66
2023/02/04 11:08:50;;;;;;;;;27.33;24.67;;;;;;;;6402480;22;45316;-65
2023/02/04 11:11:16;;;;;;;;;21.67;20.00;;;;;;;;6402518;22;45633;-65
2023/02/04 11:13:57;;;;;;;;;21.00;19.67;;;;;;;;6398851;22;45666;-65
2023/02/04 11:16:22;;;;;;;;;22.00;20.33;;;;;;;;6400391;22;45343;-65
2023/02/04 11:18:51;;;;;;;;;24.00;20.50;;;;;;;;6399768;22;45493;-65
2023/02/04 11:21:40;;;;;;;;;17.00;15.67;;;;;;;;6402381;22;46394;-66
2023/02/04 11:24:05;;;;;;;;;17.33;17.33;;;;;;;;6379037;22;45362;-65
2023/02/04 11:26:32;;;;;;;;;21.00;19.00;;;;;;;;6400962;22;45329;-65
2023/02/04 11:28:57;;;;;;;;;22.67;19.33;;;;;;;;6402250;22;45419;-66
2023/02/04 11:31:22;;;;;;;;;22.50;20.50;;;;;;;;6402068;22;45536;-65
2023/02/04 11:33:48;;;;;;;;;24.00;15.33;;;;;;;;6401328;22;45353;-65
2023/02/04 11:36:14;;;;;;;;;16.33;14.00;;;;;;;;6372795;22;45337;-65
2023/02/04 11:38:46;;;;;;;;;13.00;12.00;;;;;;;;6402587;22;45704;-65
2023/02/04 11:41:37;;;;;;;;;12.00;12.00;;;;;;;;6398374;22;46313;-66
2023/02/04 11:44:03;;;;;;;;;14.00;11.00;;;;;;;;6393211;22;45148;-67
2023/02/04 11:46:28;;;;;;;;;17.00;14.00;;;;;;;;6400853;22;45328;-65
2023/02/04 11:48:54;;;;;;;;;15.00;14.00;;;;;;;;6400847;22;45426;-65
2023/02/04 11:51:24;;;;;;;;;6.67;6.67;;;;;;;;6399959;22;48094;-66
2023/02/04 11:53:50;;;;;;;;;15.67;15.00;;;;;;;;6370848;22;45387;-65
2023/02/04 11:56:16;;;;;;;;;13.67;13.00;;;;;;;;6401661;22;45737;-65
2023/02/04 11:58:42;;;;;;;;;14.67;14.00;;;;;;;;6401886;22;45456;-65
2023/02/04 12:01:15;;;;;;;;;16.33;15.00;;;;;;;;6402628;22;45218;-65
2023/02/04 12:03:45;;;;;;;;;21.33;17.33;;;;;;;;6403588;22;45314;-65
2023/02/04 12:06:19;;;;;;;;;20.67;19.33;;;;;;;;6403741;22;45413;-66
2023/02/04 12:08:44;;;;;;;;;18.33;16.33;;;;;;;;6403207;22;45236;-65
2023/02/04 12:11:11;;;;;;;;;19.67;18.00;;;;;;;;6403782;22;46178;-66
2023/02/04 12:13:53;;;;;;;;;22.33;20.00;;;;;;;;6399768;22;45314;-65
2023/02/04 12:16:18;;;;;;;;;19.67;15.00;;;;;;;;6402547;22;45434;-67
2023/02/04 12:18:43;;;;;;;;;18.33;18.33;;;;;;;;6396106;22;45551;-65
2023/02/04 12:21:08;;;;;;;;;14.33;14.00;;;;;;;;6403786;22;46705;-64
2023/02/04 12:23:34;;;;;;;;;10.00;10.00;;;;;;;;6402257;22;45320;-64
2023/02/04 12:25:59;;;;;;;;;11.67;11.67;;;;;;;;6402779;22;45478;-65
2023/02/04 12:28:26;;;;;;;;;15.00;14.00;;;;;;;;6401640;22;45160;-64
2023/02/04 12:30:51;;;;;;;;;12.33;12.33;;;;;;;;6402408;22;47086;-65
2023/02/04 12:33:17;;;;;;;;;10.00;10.00;;;;;;;;6403599;22;45428;-64
2023/02/04 12:35:42;;;;;;;;;15.33;12.00;;;;;;;;6403729;22;45310;-64
2023/02/04 12:38:08;;;;;;;;;15.67;14.67;;;;;;;;6403357;22;45518;-65
2023/02/04 12:40:33;;;;;;;;;18.00;16.00;;;;;;;;6403198;22;45591;-63
2023/02/04 12:42:58;;;;;;;;;16.00;15.00;;;;;;;;6403132;22;45356;-63
2023/02/04 12:45:23;;;;;;;;;15.67;14.67;;;;;;;;6403596;22;45302;-64
2023/02/04 12:47:48;;;;;;;;;20.67;16.67;;;;;;;;6399476;22;45761;-64
2023/02/04 12:50:21;;;;;;;;;15.67;15.33;;;;;;;;6402144;22;45609;-64
2023/02/04 12:52:46;;;;;;;;;18.67;15.33;;;;;;;;6400538;22;45281;-66
2023/02/04 12:55:11;;;;;;;;;17.00;15.67;;;;;;;;6403118;22;45398;-64
2023/02/04 12:57:36;;;;;;;;;18.00;16.67;;;;;;;;6400698;22;45438;-66
2023/02/04 13:00:03;;;;;;;;;21.00;17.67;;;;;;;;6401133;22;46075;-66
2023/02/04 13:02:28;;;;;;;;;20.00;19.67;;;;;;;;6402103;22;45441;-65
2023/02/04 13:04:53;;;;;;;;;16.33;15.00;;;;;;;;6401433;22;45581;-65
2023/02/04 13:07:20;;;;;;;;;14.00;14.00;;;;;;;;6403891;22;45252;-65
2023/02/04 13:09:45;;;;;;;;;15.67;14.00;;;;;;;;6401494;22;46300;-66
2023/02/04 13:12:12;;;;;;;;;16.67;15.00;;;;;;;;6373510;22;45336;-65
2023/02/04 13:14:37;;;;;;;;;14.00;14.00;;;;;;;;6402421;22;45319;-65
2023/02/04 13:17:03;;;;;;;;;18.33;17.67;;;;;;;;6401432;22;45393;-65
2023/02/04 13:19:28;;;;;;;;;15.67;14.67;;;;;;;;6403368;22;45325;-65
2023/02/04 13:21:53;;;;;;;;;16.33;13.33;;;;;;;;6402922;22;45225;-66
2023/02/04 13:24:18;;;;;;;;;19.00;15.33;;;;;;;;6403745;22;45272;-65
2023/02/04 13:26:43;;;;;;;;;16.33;15.00;;;;;;;;6402824;22;45206;-65
2023/02/04 13:29:08;;;;;;;;;14.33;13.67;;;;;;;;6402336;22;45308;-66
2023/02/04 13:31:34;;;;;;;;;15.00;14.00;;;;;;;;6402877;22;45643;-66
2023/02/04 13:33:59;;;;;;;;;19.33;15.00;;;;;;;;6402803;22;45884;-65
2023/02/04 13:36:26;;;;;;;;;16.00;13.33;;;;;;;;6403523;22;45410;-66
2023/02/04 13:38:51;;;;;;;;;17.67;16.00;;;;;;;;6401416;22;46849;-65
2023/02/04 13:41:17;;;;;;;;;18.33;17.00;;;;;;;;6403392;22;45320;-66
2023/02/04 13:43:42;;;;;;;;;16.00;14.67;;;;;;;;6401249;22;45266;-65
2023/02/04 13:46:07;;;;;;;;;16.00;15.00;;;;;;;;6402108;22;45577;-65
2023/02/04 13:48:32;;;;;;;;;16.00;14.33;;;;;;;;6403283;22;45483;-65
2023/02/04 13:50:57;;;;;;;;;17.00;15.67;;;;;;;;6402313;22;45352;-65
2023/02/04 13:53:24;;;;;;;;;15.00;14.00;;;;;;;;6403213;22;45296;-65
2023/02/04 13:55:49;;;;;;;;;16.00;16.00;;;;;;;;6402687;22;45254;-66
2023/02/04 13:58:14;;;;;;;;;14.00;14.00;;;;;;;;6402498;22;46105;-65
2023/02/04 14:00:40;;;;;;;;;17.33;14.67;;;;;;;;6398996;22;45472;-65
2023/02/04 14:03:05;;;;;;;;;17.67;16.33;;;;;;;;6402119;22;45229;-65
2023/02/04 14:05:30;;;;;;;;;18.33;14.33;;;;;;;;6403317;22;45578;-65
2023/02/04 14:07:55;;;;;;;;;17.67;17.67;;;;;;;;6402266;22;47093;-65
2023/02/04 14:10:23;;;;;;;;;19.00;17.00;;;;;;;;6402822;22;45751;-65
2023/02/04 14:12:48;;;;;;;;;27.67;25.00;;;;;;;;6402272;22;45368;-66
2023/02/04 14:15:14;;;;;;;;;21.67;18.67;;;;;;;;6396006;22;45239;-66
2023/02/04 14:17:39;;;;;;;;;15.00;13.67;;;;;;;;6399044;22;46784;-66
2023/02/04 14:20:04;;;;;;;;;15.00;15.00;;;;;;;;6400320;22;45380;-66
2023/02/04 14:22:30;;;;;;;;;21.67;21.00;;;;;;;;6400413;22;45386;-65
2023/02/04 14:24:55;;;;;;;;;22.00;20.67;;;;;;;;6401834;22;45613;-65
2023/02/04 14:27:20;;;;;;;;;19.00;18.33;;;;;;;;6403477;22;46123;-65
2023/02/04 14:29:45;;;;;;;;;9.67;8.67;;;;;;;;6403354;22;45131;-65
2023/02/04 14:32:11;;;;;;;;;23.00;22.67;;;;;;;;6402390;22;45281;-65
2023/02/04 14:34:36;;;;;;;;;6.67;5.67;;;;;;;;6403535;22;45122;-66
2023/02/04 14:37:01;;;;;;;;;7.33;7.33;;;;;;;;6402753;22;46028;-65
2023/02/04 14:39:26;;;;;;;;;12.00;8.33;;;;;;;;6403870;22;45242;-65
2023/02/04 14:41:51;;;;;;;;;8.00;7.33;;;;;;;;6403108;22;45314;-65
2023/02/04 14:44:19;;;;;;;;;11.00;8.33;;;;;;;;6403043;22;45642;-65
2023/02/04 14:46:46;;;;;;;;;6.00;6.00;;;;;;;;6402534;22;46269;-65
2023/02/04 14:49:12;;;;;;;;;7.67;5.00;;;;;;;;6402638;22;45346;-66
2023/02/04 14:51:37;;;;;;;;;7.00;7.00;;;;;;;;6403153;22;45179;-66
2023/02/04 14:54:02;;;;;;;;;7.33;6.33;;;;;;;;6402109;22;45274;-66
2023/02/04 14:56:27;;;;;;;;;5.67;5.33;;;;;;;;6401639;22;46082;-66
2023/02/04 14:58:52;;;;;;;;;8.00;6.00;;;;;;;;6403166;22;45171;-66
2023/02/04 15:01:18;;;;;;;;;4.33;4.00;;;;;;;;6403081;22;45297;-65
2023/02/04 15:03:43;;;;;;;;;5.33;5.00;;;;;;;;6401786;22;45511;-65
2023/02/04 15:06:09;;;;;;;;;8.00;5.67;;;;;;;;6402150;22;45530;-65
2023/02/04 15:08:34;;;;;;;;;8.00;6.67;;;;;;;;6403473;22;45206;-66
2023/02/04 15:10:59;;;;;;;;;3.33;3.33;;;;;;;;6374168;22;45360;-65
2023/02/04 15:13:25;;;;;;;;;9.33;9.33;;;;;;;;6402495;22;45210;-65
2023/02/04 15:15:50;;;;;;;;;11.00;9.33;;;;;;;;6401857;22;46133;-64
2023/02/04 15:18:15;;;;;;;;;11.00;10.00;;;;;;;;6402324;22;45138;-65
2023/02/04 15:20:40;;;;;;;;;20.67;20.33;;;;;;;;6401861;22;45541;-71
2023/02/04 15:23:05;;;;;;;;;20.00;18.67;;;;;;;;6402199;22;45330;-70
2023/02/04 15:25:31;;;;;;;;;21.33;19.33;;;;;;;;6401685;22;46308;-70
2023/02/04 15:27:56;;;;;;;;;24.67;21.00;;;;;;;;6402117;22;45344;-71
2023/02/04 15:30:21;;;;;;;;;11.67;10.33;;;;;;;;6400218;22;45289;-70
2023/02/04 15:32:46;;;;;;;;;11.33;8.67;;;;;;;;6403489;22;45157;-70
2023/02/04 15:35:12;;;;;;;;;8.67;6.67;;;;;;;;6402845;22;46855;-70
2023/02/04 15:37:37;;;;;;;;;14.00;9.00;;;;;;;;6402193;22;45358;-65
2023/02/04 15:40:03;;;;;;;;;9.67;7.00;;;;;;;;6404049;22;45505;-65
2023/02/04 15:42:28;;;;;;;;;29.00;25.00;;;;;;;;6404601;22;45284;-65
2023/02/04 15:44:54;;;;;;;;;7.33;7.00;;;;;;;;6402684;22;46137;-65
2023/02/04 15:47:19;;;;;;;;;9.33;9.00;;;;;;;;6403732;22;45165;-65
2023/02/04 15:49:44;;;;;;;;;13.00;10.33;;;;;;;;6403804;22;45442;-65
2023/02/04 15:52:09;;;;;;;;;11.00;9.00;;;;;;;;6403137;22;45264;-65
2023/02/04 15:54:35;;;;;;;;;5.33;5.33;;;;;;;;6403989;22;45430;-65
2023/02/04 15:57:00;;;;;;;;;7.00;7.00;;;;;;;;6401986;22;45853;-66
2023/02/04 15:59:25;;;;;;;;;10.33;8.33;;;;;;;;6404426;22;45254;-65
2023/02/04 16:01:51;;;;;;;;;7.67;7.67;;;;;;;;6402485;22;45364;-65
2023/02/04 16:04:16;;;;;;;;;9.33;8.00;;;;;;;;6403592;22;45978;-66
2023/02/04 16:06:41;;;;;;;;;8.00;8.00;;;;;;;;6401227;22;45582;-65
2023/02/04 16:09:06;;;;;;;;;9.67;7.00;;;;;;;;6375242;22;45276;-66
2023/02/04 16:11:31;;;;;;;;;9.67;9.67;;;;;;;;6403838;22;45210;-66
2023/02/04 16:13:57;;;;;;;;;8.33;8.33;;;;;;;;6403932;22;45245;-63
2023/02/04 16:16:22;;;;;;;;;14.00;11.00;;;;;;;;6401509;22;45193;-62
2023/02/04 16:18:47;;;;;;;;;11.00;9.00;;;;;;;;6403273;22;45474;-62
2023/02/04 16:21:13;;;;;;;;;12.33;11.00;;;;;;;;6404378;22;45506;-61
2023/02/04 16:23:38;;;;;;;;;12.00;10.00;;;;;;;;6404622;22;45085;-62
2023/02/04 16:26:03;;;;;;;;;12.00;10.67;;;;;;;;6404155;22;45348;-62
2023/02/04 16:28:28;;;;;;;;;14.67;13.00;;;;;;;;6404351;22;45764;-61
2023/02/04 16:30:54;;;;;;;;;11.33;10.67;;;;;;;;6403416;22;45346;-62
2023/02/04 16:33:19;;;;;;;;;13.00;13.00;;;;;;;;6402246;22;46121;-62
2023/02/04 16:36:00;;;;;;;;;14.00;12.67;;;;;;;;6403713;22;45203;-61
2023/02/04 16:38:28;;;;;;;;;14.67;14.33;;;;;;;;6403772;22;45549;-62
2023/02/04 16:40:53;;;;;;;;;16.00;11.00;;;;;;;;6403243;22;45243;-62
2023/02/04 16:43:18;;;;;;;;;13.67;12.67;;;;;;;;6404640;22;45969;-61
2023/02/04 16:45:44;;;;;;;;;17.33;14.00;;;;;;;;6403700;22;45230;-62
2023/02/04 16:48:09;;;;;;;;;17.00;14.00;;;;;;;;6404858;22;45693;-61
2023/02/04 16:50:34;;;;;;;;;12.67;10.00;;;;;;;;6374818;22;45349;-61
2023/02/04 16:52:59;;;;;;;;;14.00;12.00;;;;;;;;6403335;22;46193;-62
2023/02/04 16:55:26;;;;;;;;;13.33;13.33;;;;;;;;6404983;22;45405;-61
2023/02/04 16:57:51;;;;;;;;;14.33;13.00;;;;;;;;6404019;22;45240;-61
2023/02/04 17:00:17;;;;;;;;;17.00;12.33;;;;;;;;6403525;22;45282;-60
2023/02/04 17:02:42;;;;;;;;;16.67;13.67;;;;;;;;6403599;22;47071;-62
2023/02/04 17:05:07;;;;;;;;;12.00;12.00;;;;;;;;6403073;22;45191;-61
2023/02/04 17:07:32;;;;;;;;;13.33;11.00;;;;;;;;6404081;22;45430;-62
2023/02/04 17:09:57;;;;;;;;;11.33;11.00;;;;;;;;6374039;22;45316;-62
2023/02/04 17:12:23;;;;;;;;;18.00;14.00;;;;;;;;6404091;22;45879;-61
2023/02/04 17:14:48;;;;;;;;;17.00;17.00;;;;;;;;6403629;22;45276;-62
2023/02/04 17:17:13;;;;;;;;;14.67;13.00;;;;;;;;6375836;22;45323;-61
2023/02/04 17:19:38;;;;;;;;;13.67;13.00;;;;;;;;6402280;22;45251;-61
2023/02/04 17:22:04;;;;;;;;;14.33;13.00;;;;;;;;6403291;22;45680;-61
2023/02/04 17:24:29;;;;;;;;;19.67;17.00;;;;;;;;6403604;22;45279;-61
2023/02/04 17:26:54;;;;;;;;;20.33;15.33;;;;;;;;6404172;22;45263;-62
2023/02/04 17:29:21;;;;;;;;;18.00;15.33;;;;;;;;6404686;22;45244;-62
2023/02/04 17:31:47;;;;;;;;;18.33;17.00;;;;;;;;6402621;22;46330;-62
2023/02/04 17:34:12;;;;;;;;;21.67;19.00;;;;;;;;6404213;22;45210;-63
2023/02/04 17:36:37;;;;;;;;;25.00;24.00;;;;;;;;6403502;22;45280;-61
2023/02/04 17:39:03;;;;;;;;;27.00;23.00;;;;;;;;6403240;22;45382;-62
2023/02/04 17:41:28;;;;;;;;;25.33;23.67;;;;;;;;6404133;22;46022;-62
2023/02/04 17:43:54;;;;;;;;;27.67;26.33;;;;;;;;6403699;22;45280;-62
2023/02/04 17:46:19;;;;;;;;;28.00;26.33;;;;;;;;6403993;22;45148;-62
2023/02/04 17:48:44;;;;;;;;;26.67;24.67;;;;;;;;6403000;22;45260;-61
2023/02/04 17:51:09;;;;;;;;;29.00;27.67;;;;;;;;6403885;22;45277;-62
2023/02/04 17:53:35;;;;;;;;;31.00;26.33;;;;;;;;6403311;22;45200;-61
2023/02/04 17:56:00;;;;;;;;;29.00;27.33;;;;;;;;6403277;22;45273;-62
2023/02/04 17:58:26;;;;;;;;;29.67;24.67;;;;;;;;6403954;22;45146;-62
2023/02/04 18:00:52;;;;;;;;;26.67;24.00;;;;;;;;6401132;22;46079;-61
2023/02/04 18:03:18;;;;;;;;;26.00;23.33;;;;;;;;6402871;22;45610;-62
2023/02/04 18:05:45;;;;;;;;;24.00;23.33;;;;;;;;6404178;22;45300;-62
2023/02/04 18:08:14;;;;;;;;;17.00;17.00;;;;;;;;6403660;22;45456;-62
2023/02/04 18:10:44;;;;;;;;;17.33;16.00;;;;;;;;6403370;22;46160;-62
2023/02/04 18:13:12;;;;;;;;;14.00;14.00;;;;;;;;6404117;22;45422;-62
2023/02/04 18:15:37;;;;;;;;;14.00;14.00;;;;;;;;6403576;22;45209;-61
2023/02/04 18:18:22;;;;;;;;;17.00;15.00;;;;;;;;6400414;22;45260;-61
2023/02/04 18:20:52;;;;;;;;;16.33;15.00;;;;;;;;6401120;22;45517;-61
2023/02/04 18:23:17;;;;;;;;;18.00;17.00;;;;;;;;6402753;22;45292;-62
2023/02/04 18:25:43;;;;;;;;;19.67;14.33;;;;;;;;6403639;22;45317;-61
2023/02/04 18:28:16;;;;;;;;;17.33;17.33;;;;;;;;6404527;22;45235;-62
2023/02/04 18:30:42;;;;;;;;;17.33;16.00;;;;;;;;6402531;22;47055;-62
2023/02/04 18:33:15;;;;;;;;;18.33;16.33;;;;;;;;6403263;22;45427;-62
2023/02/04 18:35:42;;;;;;;;;16.33;16.33;;;;;;;;6404632;22;45262;-61
2023/02/04 18:38:19;;;;;;;;;18.00;15.67;;;;;;;;6402227;22;45411;-62
2023/02/04 18:40:45;;;;;;;;;14.00;14.00;;;;;;;;6398701;22;46944;-61
2023/02/04 18:43:10;;;;;;;;;17.33;16.33;;;;;;;;6400313;22;45720;-61
2023/02/04 18:45:35;;;;;;;;;20.50;17.75;;;;;;;;6403403;22;45664;-61
2023/02/04 18:48:21;;;;;;;;;15.00;14.67;;;;;;;;6401903;22;45393;-61
2023/02/04 18:50:47;;;;;;;;;16.00;16.00;;;;;;;;6400511;22;45351;-61
2023/02/04 18:53:13;;;;;;;;;13.00;12.67;;;;;;;;6400393;22;45300;-61
2023/02/04 18:55:40;;;;;;;;;15.75;15.00;;;;;;;;6402104;22;45446;-61
2023/02/04 18:58:21;;;;;;;;;17.00;16.00;;;;;;;;6401188;22;45439;-62
2023/02/04 19:00:47;;;;;;;;;17.67;15.67;;;;;;;;6400134;22;46097;-61
2023/02/04 19:03:45;;;;;;;;;21.00;16.67;;;;;;;;6402751;22;45258;-61
2023/02/04 19:06:25;;;;;;;;;17.67;17.00;;;;;;;;6330424;22;45211;-61
2023/02/04 19:08:51;;;;;;;;;16.00;15.00;;;;;;;;6402866;22;45305;-66
2023/02/04 19:11:27;;;;;;;;;17.33;15.67;;;;;;;;6399282;22;46078;-62
2023/02/04 19:13:54;;;;;;;;;17.33;16.33;;;;;;;;6402863;22;45323;-62
2023/02/04 19:16:23;;;;;;;;;16.00;15.33;;;;;;;;6404220;22;45533;-62
2023/02/04 19:18:49;;;;;;;;;19.67;16.67;;;;;;;;6403767;22;45555;-62
2023/02/04 19:21:16;;;;;;;;;18.00;17.00;;;;;;;;6402519;22;45267;-62
2023/02/04 19:23:41;;;;;;;;;15.67;15.67;;;;;;;;6399889;22;45316;-62
2023/02/04 19:26:22;;;;;;;;;18.00;17.67;;;;;;;;6401052;22;45348;-61
2023/02/04 19:28:49;;;;;;;;;20.00;19.33;;;;;;;;6402236;22;45488;-66
2023/02/04 19:31:15;;;;;;;;;20.67;18.33;;;;;;;;6402367;22;45394;-62
2023/02/04 19:33:41;;;;;;;;;20.00;19.67;;;;;;;;6399444;22;45409;-65
2023/02/04 19:36:25;;;;;;;;;22.67;18.67;;;;;;;;6401784;22;45294;-68
2023/02/04 19:39:09;;;;;;;;;15.00;12.00;;;;;;;;6401514;22;45516;-67
2023/02/04 19:41:50;;;;;;;;;19.33;16.00;;;;;;;;6373960;22;46041;-70
2023/02/04 19:44:25;;;;;;;;;13.67;11.67;;;;;;;;6402540;22;45296;-65
2023/02/04 19:46:51;;;;;;;;;13.00;13.00;;;;;;;;6400229;22;45344;-66
2023/02/04 19:49:26;;;;;;;;;15.67;12.33;;;;;;;;6403785;22;45445;-68
2023/02/04 19:51:53;;;;;;;;;11.67;11.67;;;;;;;;6397923;22;45270;-61
2023/02/04 19:54:21;;;;;;;;;13.33;11.67;;;;;;;;6401296;22;45335;-61
2023/02/04 19:56:47;;;;;;;;;14.67;14.33;;;;;;;;6402420;22;45324;-61
2023/02/04 19:59:26;;;;;;;;;10.33;10.33;;;;;;;;6403268;22;45221;-61
2023/02/04 20:02:01;;;;;;;;;12.00;12.00;;;;;;;;6399100;22;47127;-62
2023/02/04 20:04:31;;;;;;;;;10.33;9.33;;;;;;;;6403945;22;45297;-61
2023/02/04 20:06:56;;;;;;;;;11.67;11.00;;;;;;;;6374707;22;45381;-60
2023/02/04 20:09:24;;;;;;;;;10.33;9.00;;;;;;;;6402157;22;45422;-61
2023/02/04 20:11:55;;;;;;;;;13.00;10.00;;;;;;;;6401974;22;46278;-61
2023/02/04 20:14:22;;;;;;;;;13.00;11.00;;;;;;;;6402486;22;45422;-61
2023/02/04 20:16:59;;;;;;;;;10.33;8.33;;;;;;;;6374672;22;45236;-60
2023/02/04 20:19:29;;;;;;;;;13.00;9.00;;;;;;;;6400424;22;45593;-60
2023/02/04 20:22:01;;;;;;;;;13.00;11.67;;;;;;;;6402930;22;46056;-63
2023/02/04 20:24:32;;;;;;;;;11.33;11.00;;;;;;;;6404223;22;45230;-60
2023/02/04 20:26:58;;;;;;;;;12.33;11.33;;;;;;;;6403159;22;45594;-61
2023/02/04 20:29:23;;;;;;;;;11.33;11.00;;;;;;;;6403007;22;45574;-61
2023/02/04 20:31:48;;;;;;;;;12.00;11.00;;;;;;;;6402039;22;45525;-62
2023/02/04 20:34:16;;;;;;;;;11.67;10.33;;;;;;;;6402743;22;45293;-62
2023/02/04 20:36:43;;;;;;;;;12.00;10.00;;;;;;;;6399411;22;45537;-62
2023/02/04 20:39:08;;;;;;;;;14.33;12.67;;;;;;;;6399856;22;45409;-62
2023/02/04 20:41:35;;;;;;;;;14.67;11.00;;;;;;;;6402583;22;46169;-61
2023/02/04 20:44:01;;;;;;;;;9.00;9.00;;;;;;;;6401918;22;45375;-62
2023/02/04 20:46:26;;;;;;;;;14.67;10.33;;;;;;;;6402691;22;45617;-62
2023/02/04 20:48:51;;;;;;;;;9.33;9.33;;;;;;;;6403610;22;45263;-63
2023/02/04 20:51:21;;;;;;;;;12.00;12.00;;;;;;;;6395870;22;46066;-65
2023/02/04 20:53:49;;;;;;;;;11.33;9.67;;;;;;;;6401975;22;45367;-61
2023/02/04 20:56:29;;;;;;;;;8.67;6.67;;;;;;;;6400100;22;45725;-62
2023/02/04 20:59:01;;;;;;;;;10.67;8.00;;;;;;;;6400136;22;45388;-61
2023/02/04 21:01:34;;;;;;;;;8.33;8.33;;;;;;;;6401387;22;45258;-61
2023/02/04 21:04:20;;;;;;;;;6.67;6.67;;;;;;;;6400651;22;45379;-64
2023/02/04 21:06:48;;;;;;;;;7.00;5.00;;;;;;;;6400288;22;45314;-61
2023/02/04 21:09:21;;;;;;;;;6.33;6.33;;;;;;;;6402597;22;45465;-61
2023/02/04 21:11:46;;;;;;;;;6.67;5.67;;;;;;;;6399876;22;47908;-62
2023/02/04 21:14:12;;;;;;;;;6.67;6.67;;;;;;;;6402442;22;45296;-61
2023/02/04 21:16:37;;;;;;;;;7.33;5.00;;;;;;;;6403969;22;45344;-66
2023/02/04 21:19:02;;;;;;;;;9.00;7.00;;;;;;;;6401902;22;45507;-61
2023/02/04 21:21:27;;;;;;;;;6.00;6.00;;;;;;;;6403822;22;45984;-61
2023/02/04 21:23:52;;;;;;;;;7.00;7.00;;;;;;;;6399171;22;45692;-61